createdAt,value
2018-11-25T00:00:25.121Z,101184.14
2018-11-25T00:02:52.820Z,101184.49
2018-11-25T00:05:20.470Z,101187.31
2018-11-25T00:07:48.180Z,101182.02
2018-11-25T00:10:16.752Z,101180.69
2018-11-25T00:12:44.519Z,101184.70
2018-11-25T00:15:12.948Z,101186.03
2018-11-25T00:17:42.345Z,101185.05
2018-11-25T00:20:11.259Z,101187.01
2018-11-25T00:22:38.934Z,101182.53
2018-11-25T00:25:08.890Z,101182.02
2018-11-25T00:27:39.319Z,101180.34
2018-11-25T00:30:12.719Z,101179.00
2018-11-25T00:32:40.767Z,101172.98
2018-11-25T00:35:10.535Z,101171.14
2018-11-25T00:37:38.239Z,101174.02
2018-11-25T00:40:07.960Z,101167.84
2018-11-25T00:42:35.574Z,101170.01
2018-11-25T00:45:05.052Z,101166.59
2018-11-25T00:47:33.288Z,101165.02
2018-11-25T00:50:01.507Z,101158.27
2018-11-25T00:52:34.238Z,101162.50
2018-11-25T00:55:03.379Z,101162.15
2018-11-25T00:57:32.642Z,101163.53
2018-11-25T01:00:01.699Z,101166.27
2018-11-25T01:02:30.452Z,101168.67
2018-11-25T01:04:58.734Z,101161.56
2018-11-25T01:07:27.904Z,101159.45
2018-11-25T01:09:56.208Z,101161.44
2018-11-25T01:12:24.932Z,101162.20
2018-11-25T01:14:52.660Z,101163.76
2018-11-25T01:17:20.234Z,101161.12
2018-11-25T01:19:47.934Z,101164.16
2018-11-25T01:22:15.515Z,101165.02
2018-11-25T01:24:44.306Z,101164.66
2018-11-25T01:27:12.003Z,101169.30
2018-11-25T01:29:40.229Z,101159.95
2018-11-25T01:32:07.923Z,101161.92
2018-11-25T01:34:36.568Z,101164.78
2018-11-25T01:37:07.817Z,101162.90
2018-11-25T01:39:36.173Z,101161.21
2018-11-25T01:42:05.105Z,101159.05
2018-11-25T01:44:34.176Z,101154.06
2018-11-25T01:47:02.346Z,101153.55
2018-11-25T01:49:30.009Z,101147.47
2018-11-25T01:51:57.623Z,101145.35
2018-11-25T01:54:25.272Z,101146.69
2018-11-25T01:56:53.592Z,101149.63
2018-11-25T01:59:21.183Z,101151.28
2018-11-25T02:01:48.741Z,101154.38
2018-11-25T02:04:16.383Z,101149.59
2018-11-25T02:06:44.009Z,101149.16
2018-11-25T02:09:11.651Z,101149.73
2018-11-25T02:11:39.215Z,101142.20
2018-11-25T02:14:08.086Z,101143.61
2018-11-25T02:16:35.775Z,101146.63
2018-11-25T02:19:04.102Z,101136.89
2018-11-25T02:21:32.664Z,101138.30
2018-11-25T02:24:02.419Z,101136.17
2018-11-25T02:26:31.725Z,101132.08
2018-11-25T02:29:01.897Z,101134.43
2018-11-25T02:31:33.771Z,101135.53
2018-11-25T02:34:03.296Z,101132.03
2018-11-25T02:36:30.945Z,101134.34
2018-11-25T02:38:58.566Z,101133.84
2018-11-25T02:41:26.242Z,101128.22
2018-11-25T02:43:53.891Z,101128.52
2018-11-25T02:46:21.475Z,101130.59
2018-11-25T02:48:49.693Z,101132.70
2018-11-25T02:51:17.378Z,101129.89
2018-11-25T02:53:45.513Z,101128.67
2018-11-25T02:56:13.705Z,101128.20
2018-11-25T02:58:41.533Z,101126.45
2018-11-25T03:01:09.885Z,101125.68
2018-11-25T03:03:37.498Z,101127.92
2018-11-25T03:06:06.260Z,101125.70
2018-11-25T03:08:33.958Z,101128.66
2018-11-25T03:11:01.628Z,101125.36
2018-11-25T03:13:29.306Z,101130.19
2018-11-25T03:15:57.952Z,101130.36
2018-11-25T03:18:25.537Z,101124.95
2018-11-25T03:20:53.220Z,101120.65
2018-11-25T03:23:21.579Z,101120.38
2018-11-25T03:25:49.981Z,101111.12
2018-11-25T03:28:17.570Z,101116.80
2018-11-25T03:30:45.204Z,101113.91
2018-11-25T03:33:13.796Z,101117.36
2018-11-25T03:35:41.500Z,101115.40
2018-11-25T03:38:09.727Z,101106.61
2018-11-25T03:40:37.813Z,101111.94
2018-11-25T03:43:06.302Z,101112.84
2018-11-25T03:45:33.950Z,101113.20
2018-11-25T03:48:01.591Z,101107.42
2018-11-25T03:50:29.869Z,101112.26
2018-11-25T03:52:57.487Z,101115.16
2018-11-25T03:55:25.051Z,101108.67
2018-11-25T03:57:52.754Z,101109.03
2018-11-25T04:00:21.455Z,101113.45
2018-11-25T04:02:50.815Z,101108.79
2018-11-25T04:05:17.784Z,101112.16
2018-11-25T04:07:44.723Z,101111.05
2018-11-25T04:10:12.740Z,101112.59
2018-11-25T04:12:39.665Z,101115.09
2018-11-25T04:15:08.735Z,101115.61
2018-11-25T04:17:35.661Z,101116.16
2018-11-25T04:20:02.615Z,101122.00
2018-11-25T04:22:29.529Z,101116.70
2018-11-25T04:24:56.461Z,101110.02
2018-11-25T04:27:23.423Z,101116.70
2018-11-25T04:29:50.365Z,101116.06
2018-11-25T04:32:17.279Z,101108.21
2018-11-25T04:34:44.186Z,101108.56
2018-11-25T04:37:11.109Z,101102.36
2018-11-25T04:39:38.029Z,101107.70
2018-11-25T04:42:05.050Z,101105.31
2018-11-25T04:44:31.958Z,101102.89
2018-11-25T04:46:58.865Z,101104.75
2018-11-25T04:49:25.761Z,101114.03
2018-11-25T04:51:52.686Z,101110.73
2018-11-25T04:54:19.724Z,101110.77
2018-11-25T04:56:46.631Z,101115.47
2018-11-25T04:59:13.529Z,101110.41
2018-11-25T05:01:40.448Z,101110.41
2018-11-25T05:04:07.365Z,101104.02
2018-11-25T05:06:34.281Z,101108.80
2018-11-25T05:09:01.205Z,101108.72
2018-11-25T05:11:28.139Z,101106.20
2018-11-25T05:13:55.029Z,101106.98
2018-11-25T05:16:21.949Z,101104.37
2018-11-25T05:18:48.854Z,101109.16
2018-11-25T05:21:15.792Z,101114.26
2018-11-25T05:23:42.693Z,101116.52
2018-11-25T05:26:09.612Z,101120.08
2018-11-25T05:28:36.543Z,101122.19
2018-11-25T05:31:03.521Z,101121.27
2018-11-25T05:33:30.470Z,101122.52
2018-11-25T05:35:57.389Z,101120.35
2018-11-25T05:38:24.308Z,101124.56
2018-11-25T05:40:51.222Z,101127.94
2018-11-25T05:43:18.141Z,101125.95
2018-11-25T05:45:45.038Z,101125.33
2018-11-25T05:48:11.963Z,101122.47
2018-11-25T05:50:38.899Z,101126.88
2018-11-25T05:53:05.812Z,101127.17
2018-11-25T05:55:32.729Z,101126.13
2018-11-25T05:57:59.649Z,101129.14
2018-11-25T06:00:31.282Z,101126.98
2018-11-25T06:02:58.220Z,101129.66
2018-11-25T06:05:25.128Z,101130.12
2018-11-25T06:07:52.066Z,101130.36
2018-11-25T06:10:18.967Z,101133.50
2018-11-25T06:12:52.664Z,101125.14
2018-11-25T06:15:19.591Z,101137.86
2018-11-25T06:17:46.538Z,101137.50
2018-11-25T06:20:16.182Z,101139.91
2018-11-25T06:22:43.254Z,101139.83
2018-11-25T06:25:11.454Z,101143.05
2018-11-25T06:27:38.616Z,101140.47
2018-11-25T06:30:08.682Z,101144.88
2018-11-25T06:32:35.608Z,101144.95
2018-11-25T06:35:02.531Z,101145.50
2018-11-25T06:37:29.445Z,101150.92
2018-11-25T06:39:56.358Z,101149.94
2018-11-25T06:42:23.269Z,101150.84
2018-11-25T06:44:50.178Z,101150.57
2018-11-25T06:47:17.105Z,101152.66
2018-11-25T06:49:44.020Z,101152.03
2018-11-25T06:52:10.947Z,101153.28
2018-11-25T06:54:37.860Z,101155.20
2018-11-25T06:57:04.808Z,101160.58
2018-11-25T06:59:32.568Z,101158.97
2018-11-25T07:01:59.446Z,101159.67
2018-11-25T07:04:26.364Z,101159.39
2018-11-25T07:06:53.277Z,101157.75
2018-11-25T07:09:20.185Z,101159.66
2018-11-25T07:11:47.094Z,101162.53
2018-11-25T07:14:14.009Z,101167.59
2018-11-25T07:16:40.913Z,101170.30
2018-11-25T07:19:07.853Z,101172.19
2018-11-25T07:21:34.768Z,101171.78
2018-11-25T07:24:01.692Z,101171.27
2018-11-25T07:26:28.633Z,101172.32
2018-11-25T07:28:55.552Z,101174.36
2018-11-25T07:31:22.455Z,101183.20
2018-11-25T07:33:49.365Z,101178.21
2018-11-25T07:36:16.266Z,101175.38
2018-11-25T07:38:43.173Z,101173.22
2018-11-25T07:41:10.081Z,101177.23
2018-11-25T07:43:36.997Z,101179.74
2018-11-25T07:46:04.221Z,101185.09
2018-11-25T07:48:31.133Z,101186.30
2018-11-25T07:50:58.030Z,101188.97
2018-11-25T07:53:24.967Z,101188.45
2018-11-25T07:55:51.869Z,101188.90
2018-11-25T07:58:18.801Z,101196.44
2018-11-25T08:00:45.703Z,101196.48
2018-11-25T08:03:12.623Z,101194.31
2018-11-25T08:05:39.529Z,101197.81
2018-11-25T08:08:06.470Z,101198.67
2018-11-25T08:10:33.386Z,101191.13
2018-11-25T08:13:00.310Z,101195.14
2018-11-25T08:15:27.246Z,101200.13
2018-11-25T08:17:54.153Z,101196.13
2018-11-25T08:20:21.578Z,101192.12
2018-11-25T08:22:48.671Z,101198.67
2018-11-25T08:25:17.365Z,101197.18
2018-11-25T08:27:44.293Z,101193.17
2018-11-25T08:30:15.366Z,101197.02
2018-11-25T08:32:42.289Z,101193.72
2018-11-25T08:35:09.753Z,101194.06
2018-11-25T08:37:36.793Z,101195.05
2018-11-25T08:40:07.034Z,101195.05
2018-11-25T08:42:33.953Z,101197.72
2018-11-25T08:45:00.866Z,101196.39
2018-11-25T08:47:27.781Z,101198.23
2018-11-25T08:49:54.703Z,101197.72
2018-11-25T08:52:21.611Z,101193.36
2018-11-25T08:54:48.518Z,101196.39
2018-11-25T08:57:15.433Z,101197.80
2018-11-25T08:59:42.381Z,101190.13
2018-11-25T09:02:09.449Z,101184.17
2018-11-25T09:04:36.582Z,101194.11
2018-11-25T09:07:03.569Z,101199.36
2018-11-25T09:09:30.813Z,101205.73
2018-11-25T09:11:57.761Z,101197.23
2018-11-25T09:14:24.742Z,101201.23
2018-11-25T09:16:51.662Z,101203.12
2018-11-25T09:19:18.581Z,101208.47
2018-11-25T09:21:45.477Z,101206.55
2018-11-25T09:24:12.432Z,101210.25
2018-11-25T09:26:39.435Z,101212.55
2018-11-25T09:29:06.504Z,101213.53
2018-11-25T09:31:33.430Z,101213.91
2018-11-25T09:34:00.334Z,101217.25
2018-11-25T09:36:27.490Z,101218.23
2018-11-25T09:38:54.386Z,101225.62
2018-11-25T09:41:22.258Z,101226.27
2018-11-25T09:43:50.640Z,101225.27
2018-11-25T09:46:17.561Z,101220.82
2018-11-25T09:48:44.689Z,101222.34
2018-11-25T09:51:11.890Z,101222.41
2018-11-25T09:53:38.802Z,101223.39
2018-11-25T09:56:06.157Z,101219.86
2018-11-25T09:58:33.045Z,101221.01
2018-11-25T10:00:59.966Z,101217.70
2018-11-25T10:03:27.079Z,101219.03
2018-11-25T10:05:53.998Z,101217.06
2018-11-25T10:08:20.921Z,101218.11
2018-11-25T10:10:52.641Z,101216.45
2018-11-25T10:13:14.966Z,101214.31
2018-11-25T10:15:41.881Z,101216.70
2018-11-25T10:18:08.793Z,101211.57
2018-11-25T10:20:35.719Z,101211.06
2018-11-25T10:23:02.679Z,101206.05
2018-11-25T10:25:29.640Z,101199.67
2018-11-25T10:27:56.596Z,101195.04
2018-11-25T10:30:25.557Z,101191.09
2018-11-25T10:32:54.555Z,101184.88
2018-11-25T10:35:21.472Z,101191.39
2018-11-25T10:37:48.381Z,101182.17
2018-11-25T10:40:16.433Z,101190.70
2018-11-25T10:42:43.455Z,101178.95
2018-11-25T10:45:11.501Z,101183.05
2018-11-25T10:47:38.573Z,101176.08
2018-11-25T10:50:07.811Z,101180.45
2018-11-25T10:52:34.713Z,101180.22
2018-11-25T10:55:01.706Z,101176.41
2018-11-25T10:57:28.649Z,101182.66
2018-11-25T10:59:55.562Z,101182.02
2018-11-25T11:02:28.272Z,101191.20
2018-11-25T11:05:06.064Z,101187.95
2018-11-25T11:07:39.654Z,101189.59
2018-11-25T11:10:08.148Z,101188.95
2018-11-25T11:12:35.133Z,101188.30
2018-11-25T11:15:03.215Z,101195.05
2018-11-25T11:17:30.611Z,101196.03
2018-11-25T11:19:57.541Z,101192.20
2018-11-25T11:22:24.451Z,101186.20
2018-11-25T11:24:51.366Z,101189.87
2018-11-25T11:27:18.316Z,101181.67
2018-11-25T11:29:45.208Z,101178.00
2018-11-25T11:32:12.121Z,101184.81
2018-11-25T11:34:39.088Z,101177.64
2018-11-25T11:37:06.047Z,101187.72
2018-11-25T11:39:32.946Z,101183.70
2018-11-25T11:41:59.874Z,101177.70
2018-11-25T11:44:27.229Z,101174.22
2018-11-25T11:46:54.143Z,101172.70
2018-11-25T11:49:21.050Z,101168.52
2018-11-25T11:51:47.982Z,101166.06
2018-11-25T11:54:14.881Z,101162.78
2018-11-25T11:56:41.787Z,101167.31
2018-11-25T11:59:08.693Z,101168.84
2018-11-25T12:01:36.199Z,101162.19
2018-11-25T12:04:03.157Z,101166.85
2018-11-25T12:06:30.090Z,101168.53
2018-11-25T12:08:56.978Z,101158.98
2018-11-25T12:11:23.889Z,101165.73
2018-11-25T12:13:50.791Z,101164.61
2018-11-25T12:16:17.709Z,101167.02
2018-11-25T12:18:44.617Z,101165.78
2018-11-25T12:21:11.520Z,101163.61
2018-11-25T12:23:38.423Z,101159.94
2018-11-25T12:26:05.384Z,101162.09
2018-11-25T12:28:32.307Z,101166.25
2018-11-25T12:30:59.408Z,101165.73
2018-11-25T12:33:26.330Z,101163.58
2018-11-25T12:35:53.226Z,101154.54
2018-11-25T12:38:20.180Z,101159.42
2018-11-25T12:40:47.092Z,101154.96
2018-11-25T12:43:15.743Z,101160.63
2018-11-25T12:45:42.690Z,101159.63
2018-11-25T12:48:09.605Z,101160.63
2018-11-25T12:50:36.539Z,101162.83
2018-11-25T12:53:03.492Z,101162.92
2018-11-25T12:55:30.390Z,101165.08
2018-11-25T12:57:57.313Z,101161.67
2018-11-25T13:00:31.691Z,101166.55
2018-11-25T13:02:58.613Z,101164.17
2018-11-25T13:05:25.570Z,101159.20
2018-11-25T13:07:52.484Z,101160.67
2018-11-25T13:10:19.398Z,101163.91
2018-11-25T13:12:46.645Z,101168.27
2018-11-25T13:15:13.590Z,101167.41
2018-11-25T13:17:40.526Z,101166.37
2018-11-25T13:20:11.245Z,101165.20
2018-11-25T13:22:38.462Z,101157.86
2018-11-25T13:25:06.941Z,101165.20
2018-11-25T13:27:33.873Z,101164.56
2018-11-25T13:30:08.957Z,101161.53
2018-11-25T13:32:35.881Z,101165.89
2018-11-25T13:35:03.283Z,101170.27
2018-11-25T13:37:30.259Z,101172.29
2018-11-25T13:39:57.207Z,101170.61
2018-11-25T13:42:24.185Z,101173.25
2018-11-25T13:44:50.210Z,101169.41
2018-11-25T13:47:17.163Z,101177.30
2018-11-25T13:49:44.113Z,101175.27
2018-11-25T13:52:11.022Z,101176.09
2018-11-25T13:54:37.995Z,101177.43
2018-11-25T13:57:06.165Z,101172.20
2018-11-25T14:00:38.662Z,101165.98
2018-11-25T14:03:08.085Z,101169.83
2018-11-25T14:05:35.038Z,101175.53
2018-11-25T14:08:01.966Z,101177.73
2018-11-25T14:10:30.823Z,101175.53
2018-11-25T14:12:57.749Z,101175.52
2018-11-25T14:15:25.197Z,101172.29
2018-11-25T14:17:52.564Z,101181.99
2018-11-25T14:20:19.477Z,101181.60
2018-11-25T14:22:46.683Z,101180.77
2018-11-25T14:25:15.381Z,101180.45
2018-11-25T14:27:42.729Z,101180.80
2018-11-25T14:30:13.458Z,101188.69
2018-11-25T14:32:38.657Z,101188.17
2018-11-25T14:35:07.777Z,101184.67
2018-11-25T14:37:34.701Z,101188.69
2018-11-25T14:40:01.596Z,101188.48
2018-11-25T14:42:28.533Z,101191.67
2018-11-25T14:44:55.456Z,101182.59
2018-11-25T14:47:22.363Z,101190.63
2018-11-25T14:49:49.305Z,101200.52
2018-11-25T14:52:16.194Z,101193.95
2018-11-25T14:54:51.018Z,101195.50
2018-11-25T14:57:10.057Z,101197.19
2018-11-25T14:59:36.973Z,101200.52
2018-11-25T15:02:03.922Z,101205.82
2018-11-25T15:04:36.040Z,101206.65
2018-11-25T15:06:57.762Z,101204.66
2018-11-25T15:09:24.672Z,101206.17
2018-11-25T15:11:51.594Z,101211.88
2018-11-25T15:14:18.521Z,101209.14
2018-11-25T15:16:45.455Z,101213.16
2018-11-25T15:19:12.365Z,101210.00
2018-11-25T15:21:39.273Z,101217.52
2018-11-25T15:24:06.221Z,101222.53
2018-11-25T15:26:33.134Z,101222.23
2018-11-25T15:29:00.061Z,101221.20
2018-11-25T15:31:26.976Z,101216.00
2018-11-25T15:33:53.890Z,101218.47
2018-11-25T15:36:20.791Z,101217.80
2018-11-25T15:38:47.714Z,101215.25
2018-11-25T15:41:21.513Z,101220.77
2018-11-25T15:43:48.417Z,101221.42
2018-11-25T15:46:15.334Z,101229.11
2018-11-25T15:48:42.270Z,101231.61
2018-11-25T15:51:09.223Z,101229.27
2018-11-25T15:53:36.158Z,101225.09
2018-11-25T15:56:06.243Z,101222.06
2018-11-25T15:58:33.190Z,101224.85
2018-11-25T16:01:00.129Z,101217.63
2018-11-25T16:03:28.009Z,101219.31
2018-11-25T16:05:59.399Z,101223.97
2018-11-25T16:08:26.350Z,101221.80
2018-11-25T16:10:53.269Z,101212.52
2018-11-25T16:13:20.214Z,101212.52
2018-11-25T16:15:47.149Z,101210.86
2018-11-25T16:18:14.053Z,101206.98
2018-11-25T16:20:40.990Z,101211.52
2018-11-25T16:23:09.112Z,101203.82
2018-11-25T16:25:40.458Z,101200.47
2018-11-25T16:28:13.449Z,101193.06
2018-11-25T16:30:41.279Z,101208.50
2018-11-25T16:33:08.189Z,101208.66
2018-11-25T16:35:35.113Z,101212.86
2018-11-25T16:38:02.020Z,101214.02
2018-11-25T16:40:28.954Z,101213.19
2018-11-25T16:42:55.865Z,101215.16
2018-11-25T16:45:22.788Z,101213.83
2018-11-25T16:47:49.697Z,101216.50
2018-11-25T16:50:24.951Z,101215.11
2018-11-25T16:52:44.261Z,101216.73
2018-11-25T16:55:12.395Z,101220.27
2018-11-25T16:57:39.419Z,101225.09
2018-11-25T17:00:11.571Z,101221.91
2018-11-25T17:02:38.498Z,101224.74
2018-11-25T17:05:07.696Z,101224.39
2018-11-25T17:07:34.604Z,101217.48
2018-11-25T17:10:01.534Z,101222.55
2018-11-25T17:12:28.435Z,101224.34
2018-11-25T17:14:55.338Z,101226.37
2018-11-25T17:17:22.258Z,101225.38
2018-11-25T17:19:49.166Z,101226.02
2018-11-25T17:22:16.690Z,101226.66
2018-11-25T17:24:43.002Z,101222.52
2018-11-25T17:27:09.930Z,101226.84
2018-11-25T17:29:36.846Z,101223.28
2018-11-25T17:32:04.018Z,101229.50
2018-11-25T17:34:30.930Z,101231.64
2018-11-25T17:36:57.897Z,101230.14
2018-11-25T17:39:24.806Z,101225.94
2018-11-25T17:41:51.728Z,101228.04
2018-11-25T17:44:18.645Z,101232.05
2018-11-25T17:46:45.569Z,101232.72
2018-11-25T17:49:12.479Z,101233.20
2018-11-25T17:51:39.402Z,101238.55
2018-11-25T17:54:06.318Z,101231.16
2018-11-25T17:56:33.233Z,101234.34
2018-11-25T17:59:00.198Z,101231.32
2018-11-25T18:01:27.126Z,101228.45
2018-11-25T18:03:54.025Z,101229.28
2018-11-25T18:06:21.067Z,101219.92
2018-11-25T18:08:47.982Z,101230.14
2018-11-25T18:11:14.918Z,101236.95
2018-11-25T18:13:43.497Z,101242.47
2018-11-25T18:16:12.731Z,101242.24
2018-11-25T18:18:41.639Z,101245.72
2018-11-25T18:21:10.542Z,101243.99
2018-11-25T18:23:37.987Z,101245.36
2018-11-25T18:26:05.174Z,101244.34
2018-11-25T18:28:32.098Z,101241.45
2018-11-25T18:30:59.046Z,101239.28
2018-11-25T18:33:25.961Z,101234.28
2018-11-25T18:35:52.904Z,101237.40
2018-11-25T18:38:19.817Z,101237.42
2018-11-25T18:40:46.721Z,101237.70
2018-11-25T18:43:13.689Z,101237.86
2018-11-25T18:45:40.613Z,101228.44
2018-11-25T18:48:08.990Z,101239.77
2018-11-25T18:50:35.902Z,101248.86
2018-11-25T18:53:02.833Z,101253.66
2018-11-25T18:55:28.865Z,101251.77
2018-11-25T18:57:55.765Z,101251.77
2018-11-25T19:00:26.107Z,101253.54
2018-11-25T19:02:53.031Z,101254.02
2018-11-25T19:05:19.953Z,101245.64
2018-11-25T19:07:46.866Z,101249.61
2018-11-25T19:10:16.018Z,101254.02
2018-11-25T19:12:44.354Z,101253.98
2018-11-25T19:15:11.141Z,101259.88
2018-11-25T19:17:38.081Z,101263.17
2018-11-25T19:20:17.773Z,101261.48
2018-11-25T19:22:44.762Z,101270.13
2018-11-25T19:25:15.735Z,101268.67
2018-11-25T19:27:43.407Z,101273.23
2018-11-25T19:30:14.071Z,101280.19
2018-11-25T19:32:41.584Z,101276.12
2018-11-25T19:35:10.479Z,101283.91
2018-11-25T19:37:37.397Z,101283.91
2018-11-25T19:40:07.766Z,101282.66
2018-11-25T19:42:34.677Z,101288.08
2018-11-25T19:45:01.606Z,101287.34
2018-11-25T19:47:28.508Z,101292.64
2018-11-25T19:49:55.423Z,101296.22
2018-11-25T19:52:22.338Z,101305.26
2018-11-25T19:54:49.271Z,101308.01
2018-11-25T19:57:16.179Z,101312.22
2018-11-25T19:59:43.099Z,101304.91
2018-11-25T20:02:10.006Z,101302.78
2018-11-25T20:04:36.926Z,101306.86
2018-11-25T20:07:03.892Z,101305.09
2018-11-25T20:09:30.805Z,101306.34
2018-11-25T20:11:57.965Z,101312.05
2018-11-25T20:14:25.188Z,101310.58
2018-11-25T20:16:57.827Z,101306.41
2018-11-25T20:19:24.737Z,101301.26
2018-11-25T20:21:57.329Z,101303.63
2018-11-25T20:24:24.273Z,101294.53
2018-11-25T20:26:56.839Z,101307.55
2018-11-25T20:29:24.469Z,101305.14
2018-11-25T20:31:57.956Z,101298.64
2018-11-25T20:34:25.085Z,101301.13
2018-11-25T20:36:52.540Z,101304.85
2018-11-25T20:39:26.412Z,101302.30
2018-11-25T20:41:53.377Z,101302.53
2018-11-25T20:44:20.405Z,101302.84
2018-11-25T20:46:53.053Z,101302.17
2018-11-25T20:49:19.978Z,101308.70
2018-11-25T20:51:52.577Z,101301.19
2018-11-25T20:54:19.494Z,101302.37
2018-11-25T20:56:46.399Z,101302.37
2018-11-25T20:59:13.310Z,101307.91
2018-11-25T21:01:40.245Z,101311.48
2018-11-25T21:04:07.166Z,101306.98
2018-11-25T21:06:34.120Z,101304.86
2018-11-25T21:09:01.053Z,101300.65
2018-11-25T21:11:27.998Z,101311.06
2018-11-25T21:13:54.901Z,101314.38
2018-11-25T21:16:21.956Z,101314.57
2018-11-25T21:18:48.869Z,101313.07
2018-11-25T21:21:15.809Z,101314.41
2018-11-25T21:23:42.715Z,101311.45
2018-11-25T21:26:09.638Z,101318.14
2018-11-25T21:28:36.545Z,101317.78
2018-11-25T21:31:03.724Z,101318.48
2018-11-25T21:33:30.625Z,101312.63
2018-11-25T21:35:57.543Z,101314.83
2018-11-25T21:38:24.445Z,101315.81
2018-11-25T21:40:51.390Z,101312.30
2018-11-25T21:43:18.306Z,101311.63
2018-11-25T21:45:45.224Z,101310.11
2018-11-25T21:48:12.133Z,101311.16
2018-11-25T21:50:39.064Z,101315.17
2018-11-25T21:53:05.989Z,101316.35
2018-11-25T21:55:32.905Z,101306.16
2018-11-25T21:57:59.817Z,101312.14
2018-11-25T22:00:26.734Z,101315.36
2018-11-25T22:02:53.636Z,101313.83
2018-11-25T22:05:24.693Z,101312.97
2018-11-25T22:07:47.536Z,101311.16
2018-11-25T22:10:16.017Z,101317.84
2018-11-25T22:12:43.374Z,101310.62
2018-11-25T22:15:12.116Z,101313.83
2018-11-25T22:17:39.174Z,101319.19
2018-11-25T22:20:08.356Z,101321.52
2018-11-25T22:22:35.266Z,101314.47
2018-11-25T22:25:05.429Z,101312.72
2018-11-25T22:27:33.404Z,101316.41
2018-11-25T22:30:01.277Z,101323.77
2018-11-25T22:32:29.029Z,101316.45
2018-11-25T22:34:55.981Z,101320.46
2018-11-25T22:37:24.036Z,101316.45
2018-11-25T22:39:51.883Z,101319.83
2018-11-25T22:42:18.857Z,101319.13
2018-11-25T22:44:46.518Z,101316.98
2018-11-25T22:47:13.740Z,101320.52
2018-11-25T22:49:42.588Z,101314.31
2018-11-25T22:52:09.586Z,101318.48
2018-11-25T22:54:36.591Z,101320.55
2018-11-25T22:57:05.751Z,101321.19
2018-11-25T22:59:32.312Z,101319.88
2018-11-25T23:01:59.234Z,101312.64
2018-11-25T23:04:37.786Z,101314.77
2018-11-25T23:07:04.797Z,101313.88
2018-11-25T23:09:31.770Z,101308.17
2018-11-25T23:11:59.973Z,101307.51
2018-11-25T23:14:29.035Z,101307.38
2018-11-25T23:16:56.093Z,101312.29
2018-11-25T23:19:23.546Z,101317.28
2018-11-25T23:21:54.017Z,101318.63
2018-11-25T23:24:22.208Z,101317.80
2018-11-25T23:26:50.684Z,101315.20
2018-11-25T23:29:19.005Z,101315.48
2018-11-25T23:31:47.630Z,101312.66
2018-11-25T23:34:14.564Z,101313.17
2018-11-25T23:36:41.570Z,101320.48
2018-11-25T23:39:09.876Z,101314.50
2018-11-25T23:41:37.160Z,101327.17
2018-11-25T23:44:05.111Z,101325.13
2018-11-25T23:46:32.325Z,101328.87
2018-11-25T23:48:59.251Z,101327.77
2018-11-25T23:51:28.117Z,101326.91
2018-11-25T23:53:55.620Z,101327.66
2018-11-25T23:56:23.677Z,101328.36
2018-11-25T23:58:50.683Z,101324.70
